sensor_id;sensor_type;location;lat;lon;timestamp;P1;durP1;ratioP1;P2;durP2;ratioP2
4732;SDS011;2380;53.668;10.008;2023-03-01T00:02:02;10.47;;;5.63;;
4732;SDS011;2380;53.668;10.008;2023-03-01T00:04:31;10.07;;;5.20;;
4732;SDS011;2380;53.668;10.008;2023-03-01T00:07:01;11.18;;;5.22;;
4732;SDS011;2380;53.668;10.008;2023-03-01T00:09:31;12.57;;;4.95;;
4732;SDS011;2380;53.668;10.008;2023-03-01T00:12:00;15.65;;;7.68;;
4732;SDS011;2380;53.668;10.008;2023-03-01T00:14:32;11.07;;;5.55;;
4732;SDS011;2380;53.668;10.008;2023-03-01T00:17:04;10.87;;;4.73;;
4732;SDS011;2380;53.668;10.008;2023-03-01T00:19:34;9.75;;;5.22;;
4732;SDS011;2380;53.668;10.008;2023-03-01T00:22:04;10.90;;;5.93;;
4732;SDS011;2380;53.668;10.008;2023-03-01T00:24:33;14.27;;;5.63;;
4732;SDS011;2380;53.668;10.008;2023-03-01T00:27:02;11.65;;;6.03;;
4732;SDS011;2380;53.668;10.008;2023-03-01T00:29:35;9.45;;;4.35;;
4732;SDS011;2380;53.668;10.008;2023-03-01T00:32:04;13.60;;;6.83;;
4732;SDS011;2380;53.668;10.008;2023-03-01T00:34:34;7.67;;;4.53;;
4732;SDS011;2380;53.668;10.008;2023-03-01T00:37:03;10.23;;;4.55;;
4732;SDS011;2380;53.668;10.008;2023-03-01T00:39:34;9.75;;;4.32;;
4732;SDS011;2380;53.668;10.008;2023-03-01T00:42:03;11.10;;;5.10;;
4732;SDS011;2380;53.668;10.008;2023-03-01T00:44:35;8.37;;;4.67;;
4732;SDS011;2380;53.668;10.008;2023-03-01T00:47:05;9.17;;;5.00;;
4732;SDS011;2380;53.668;10.008;2023-03-01T00:49:34;14.65;;;4.53;;
4732;SDS011;2380;53.668;10.008;2023-03-01T00:52:04;11.40;;;5.15;;
4732;SDS011;2380;53.668;10.008;2023-03-01T00:54:33;11.13;;;5.28;;
4732;SDS011;2380;53.668;10.008;2023-03-01T00:57:03;12.30;;;5.83;;
4732;SDS011;2380;53.668;10.008;2023-03-01T00:59:32;10.23;;;4.80;;
4732;SDS011;2380;53.668;10.008;2023-03-01T01:02:05;13.70;;;5.90;;
4732;SDS011;2380;53.668;10.008;2023-03-01T01:04:34;11.40;;;6.17;;
4732;SDS011;2380;53.668;10.008;2023-03-01T01:07:04;10.60;;;5.43;;
4732;SDS011;2380;53.668;10.008;2023-03-01T01:09:34;7.70;;;4.30;;
4732;SDS011;2380;53.668;10.008;2023-03-01T01:12:04;15.90;;;5.85;;
4732;SDS011;2380;53.668;10.008;2023-03-01T01:14:33;10.52;;;4.40;;
4732;SDS011;2380;53.668;10.008;2023-03-01T01:17:06;11.10;;;4.97;;
4732;SDS011;2380;53.668;10.008;2023-03-01T01:19:36;8.88;;;5.10;;
4732;SDS011;2380;53.668;10.008;2023-03-01T01:22:05;9.32;;;5.10;;
4732;SDS011;2380;53.668;10.008;2023-03-01T01:24:35;11.35;;;4.82;;
4732;SDS011;2380;53.668;10.008;2023-03-01T01:27:04;95.25;;;32.88;;
4732;SDS011;2380;53.668;10.008;2023-03-01T01:29:34;48.78;;;19.50;;
4732;SDS011;2380;53.668;10.008;2023-03-01T01:32:06;39.63;;;15.45;;
4732;SDS011;2380;53.668;10.008;2023-03-01T01:34:36;13.40;;;5.68;;
4732;SDS011;2380;53.668;10.008;2023-03-01T01:37:05;42.35;;;17.15;;
4732;SDS011;2380;53.668;10.008;2023-03-01T01:39:35;38.20;;;16.42;;
4732;SDS011;2380;53.668;10.008;2023-03-01T01:42:05;27.95;;;13.48;;
4732;SDS011;2380;53.668;10.008;2023-03-01T01:44:34;12.80;;;5.97;;
4732;SDS011;2380;53.668;10.008;2023-03-01T01:47:07;10.75;;;4.93;;
4732;SDS011;2380;53.668;10.008;2023-03-01T01:49:46;11.45;;;5.30;;
4732;SDS011;2380;53.668;10.008;2023-03-01T01:52:17;7.93;;;3.90;;
4732;SDS011;2380;53.668;10.008;2023-03-01T01:54:49;9.15;;;5.00;;
4732;SDS011;2380;53.668;10.008;2023-03-01T01:57:20;11.38;;;5.07;;
4732;SDS011;2380;53.668;10.008;2023-03-01T01:59:57;11.40;;;5.00;;
4732;SDS011;2380;53.668;10.008;2023-03-01T02:02:31;14.38;;;7.47;;
4732;SDS011;2380;53.668;10.008;2023-03-01T02:05:01;10.80;;;4.72;;
4732;SDS011;2380;53.668;10.008;2023-03-01T02:07:36;14.52;;;5.10;;
4732;SDS011;2380;53.668;10.008;2023-03-01T02:10:09;15.65;;;7.28;;
4732;SDS011;2380;53.668;10.008;2023-03-01T02:12:38;10.63;;;5.45;;
4732;SDS011;2380;53.668;10.008;2023-03-01T02:15:09;13.43;;;5.03;;
4732;SDS011;2380;53.668;10.008;2023-03-01T02:17:41;10.75;;;5.55;;
4732;SDS011;2380;53.668;10.008;2023-03-01T02:20:14;11.48;;;5.55;;
4732;SDS011;2380;53.668;10.008;2023-03-01T02:22:47;13.05;;;6.38;;
4732;SDS011;2380;53.668;10.008;2023-03-01T02:25:28;14.85;;;7.32;;
4732;SDS011;2380;53.668;10.008;2023-03-01T02:28:05;18.80;;;9.70;;
4732;SDS011;2380;53.668;10.008;2023-03-01T02:30:43;21.20;;;8.27;;
4732;SDS011;2380;53.668;10.008;2023-03-01T02:33:26;14.18;;;7.05;;
4732;SDS011;2380;53.668;10.008;2023-03-01T02:35:59;13.10;;;6.03;;
4732;SDS011;2380;53.668;10.008;2023-03-01T02:38:29;13.65;;;5.95;;
4732;SDS011;2380;53.668;10.008;2023-03-01T02:41:00;10.45;;;5.53;;
4732;SDS011;2380;53.668;10.008;2023-03-01T02:43:32;10.32;;;5.47;;
4732;SDS011;2380;53.668;10.008;2023-03-01T02:46:06;11.50;;;4.90;;
4732;SDS011;2380;53.668;10.008;2023-03-01T02:48:39;9.30;;;5.18;;
4732;SDS011;2380;53.668;10.008;2023-03-01T02:51:11;11.02;;;5.38;;
4732;SDS011;2380;53.668;10.008;2023-03-01T02:53:49;8.80;;;5.20;;
4732;SDS011;2380;53.668;10.008;2023-03-01T02:56:23;12.15;;;6.03;;
4732;SDS011;2380;53.668;10.008;2023-03-01T02:58:53;12.45;;;5.55;;
4732;SDS011;2380;53.668;10.008;2023-03-01T03:01:29;11.18;;;6.35;;
4732;SDS011;2380;53.668;10.008;2023-03-01T03:04:06;14.20;;;5.75;;
4732;SDS011;2380;53.668;10.008;2023-03-01T03:06:37;12.00;;;5.53;;
4732;SDS011;2380;53.668;10.008;2023-03-01T03:09:07;9.93;;;5.65;;
4732;SDS011;2380;53.668;10.008;2023-03-01T03:11:37;11.60;;;5.60;;
4732;SDS011;2380;53.668;10.008;2023-03-01T03:14:07;10.98;;;5.60;;
4732;SDS011;2380;53.668;10.008;2023-03-01T03:16:42;13.57;;;6.47;;
4732;SDS011;2380;53.668;10.008;2023-03-01T03:19:12;12.82;;;6.43;;
4732;SDS011;2380;53.668;10.008;2023-03-01T03:21:42;14.95;;;6.03;;
4732;SDS011;2380;53.668;10.008;2023-03-01T03:24:12;14.95;;;6.88;;
4732;SDS011;2380;53.668;10.008;2023-03-01T03:26:42;12.10;;;6.25;;
4732;SDS011;2380;53.668;10.008;2023-03-01T03:29:11;10.70;;;6.10;;
4732;SDS011;2380;53.668;10.008;2023-03-01T03:31:43;11.43;;;6.22;;
4732;SDS011;2380;53.668;10.008;2023-03-01T03:34:13;20.30;;;7.88;;
4732;SDS011;2380;53.668;10.008;2023-03-01T03:36:44;11.57;;;5.90;;
4732;SDS011;2380;53.668;10.008;2023-03-01T03:39:13;14.73;;;7.57;;
4732;SDS011;2380;53.668;10.008;2023-03-01T03:41:45;12.70;;;5.65;;
4732;SDS011;2380;53.668;10.008;2023-03-01T03:44:15;14.50;;;6.30;;
4732;SDS011;2380;53.668;10.008;2023-03-01T03:46:47;13.35;;;6.05;;
4732;SDS011;2380;53.668;10.008;2023-03-01T03:49:16;11.35;;;5.00;;
4732;SDS011;2380;53.668;10.008;2023-03-01T03:51:46;11.85;;;6.00;;
4732;SDS011;2380;53.668;10.008;2023-03-01T03:54:15;9.18;;;5.43;;
4732;SDS011;2380;53.668;10.008;2023-03-01T03:56:45;12.38;;;5.45;;
4732;SDS011;2380;53.668;10.008;2023-03-01T03:59:14;10.63;;;5.35;;
4732;SDS011;2380;53.668;10.008;2023-03-01T04:01:46;11.90;;;5.80;;
4732;SDS011;2380;53.668;10.008;2023-03-01T04:04:16;9.88;;;5.40;;
4732;SDS011;2380;53.668;10.008;2023-03-01T04:06:45;10.25;;;5.70;;
4732;SDS011;2380;53.668;10.008;2023-03-01T04:09:15;10.07;;;5.03;;
4732;SDS011;2380;53.668;10.008;2023-03-01T04:11:44;15.38;;;6.25;;
4732;SDS011;2380;53.668;10.008;2023-03-01T04:14:14;11.45;;;5.90;;
4732;SDS011;2380;53.668;10.008;2023-03-01T04:16:43;12.70;;;6.07;;
4732;SDS011;2380;53.668;10.008;2023-03-01T04:19:16;13.30;;;6.00;;
4732;SDS011;2380;53.668;10.008;2023-03-01T04:21:45;13.60;;;5.85;;
4732;SDS011;2380;53.668;10.008;2023-03-01T04:24:14;13.63;;;5.97;;
4732;SDS011;2380;53.668;10.008;2023-03-01T04:26:44;15.27;;;6.30;;
4732;SDS011;2380;53.668;10.008;2023-03-01T04:29:13;16.10;;;6.45;;
4732;SDS011;2380;53.668;10.008;2023-03-01T04:31:43;11.77;;;5.97;;
4732;SDS011;2380;53.668;10.008;2023-03-01T04:34:13;12.07;;;6.65;;
4732;SDS011;2380;53.668;10.008;2023-03-01T04:36:45;13.50;;;6.22;;
4732;SDS011;2380;53.668;10.008;2023-03-01T04:39:17;11.73;;;5.80;;
4732;SDS011;2380;53.668;10.008;2023-03-01T04:41:47;12.63;;;6.18;;
4732;SDS011;2380;53.668;10.008;2023-03-01T04:44:16;30.15;;;15.40;;
4732;SDS011;2380;53.668;10.008;2023-03-01T04:46:48;12.18;;;7.15;;
4732;SDS011;2380;53.668;10.008;2023-03-01T04:49:20;30.38;;;16.60;;
4732;SDS011;2380;53.668;10.008;2023-03-01T04:51:50;31.85;;;14.55;;
4732;SDS011;2380;53.668;10.008;2023-03-01T04:54:19;13.50;;;7.10;;
4732;SDS011;2380;53.668;10.008;2023-03-01T04:56:49;18.13;;;9.65;;
4732;SDS011;2380;53.668;10.008;2023-03-01T04:59:18;16.97;;;7.57;;
4732;SDS011;2380;53.668;10.008;2023-03-01T05:01:49;14.45;;;7.05;;
4732;SDS011;2380;53.668;10.008;2023-03-01T05:04:21;11.32;;;5.85;;
4732;SDS011;2380;53.668;10.008;2023-03-01T05:06:51;9.73;;;6.00;;
4732;SDS011;2380;53.668;10.008;2023-03-01T05:09:22;10.30;;;5.87;;
4732;SDS011;2380;53.668;10.008;2023-03-01T05:11:51;14.20;;;7.80;;
4732;SDS011;2380;53.668;10.008;2023-03-01T05:14:21;17.50;;;7.72;;
4732;SDS011;2380;53.668;10.008;2023-03-01T05:16:50;15.60;;;5.90;;
4732;SDS011;2380;53.668;10.008;2023-03-01T05:19:22;11.50;;;5.97;;
4732;SDS011;2380;53.668;10.008;2023-03-01T05:21:53;11.00;;;5.87;;
4732;SDS011;2380;53.668;10.008;2023-03-01T05:24:33;9.87;;;6.00;;
4732;SDS011;2380;53.668;10.008;2023-03-01T05:27:04;10.43;;;5.57;;
4732;SDS011;2380;53.668;10.008;2023-03-01T05:29:34;12.87;;;5.90;;
4732;SDS011;2380;53.668;10.008;2023-03-01T05:32:05;11.17;;;5.17;;
4732;SDS011;2380;53.668;10.008;2023-03-01T05:34:37;12.73;;;6.57;;
4732;SDS011;2380;53.668;10.008;2023-03-01T05:37:07;10.25;;;5.90;;
4732;SDS011;2380;53.668;10.008;2023-03-01T05:39:37;13.20;;;6.50;;
4732;SDS011;2380;53.668;10.008;2023-03-01T05:42:09;11.97;;;5.70;;
4732;SDS011;2380;53.668;10.008;2023-03-01T05:44:39;19.50;;;6.15;;
4732;SDS011;2380;53.668;10.008;2023-03-01T05:47:09;15.33;;;6.90;;
4732;SDS011;2380;53.668;10.008;2023-03-01T05:49:41;11.70;;;5.50;;
4732;SDS011;2380;53.668;10.008;2023-03-01T05:52:10;14.30;;;6.13;;
4732;SDS011;2380;53.668;10.008;2023-03-01T05:54:40;10.53;;;5.73;;
4732;SDS011;2380;53.668;10.008;2023-03-01T05:57:09;12.70;;;6.00;;
4732;SDS011;2380;53.668;10.008;2023-03-01T05:59:39;16.02;;;5.57;;
4732;SDS011;2380;53.668;10.008;2023-03-01T06:02:09;12.48;;;6.07;;
4732;SDS011;2380;53.668;10.008;2023-03-01T06:04:41;17.02;;;7.40;;
4732;SDS011;2380;53.668;10.008;2023-03-01T06:07:11;15.98;;;7.15;;
4732;SDS011;2380;53.668;10.008;2023-03-01T06:09:40;13.37;;;6.03;;
4732;SDS011;2380;53.668;10.008;2023-03-01T06:12:10;19.07;;;8.57;;
4732;SDS011;2380;53.668;10.008;2023-03-01T06:14:40;10.77;;;6.00;;
4732;SDS011;2380;53.668;10.008;2023-03-01T06:17:09;16.67;;;6.70;;
4732;SDS011;2380;53.668;10.008;2023-03-01T06:19:41;13.70;;;6.50;;
4732;SDS011;2380;53.668;10.008;2023-03-01T06:22:11;24.42;;;6.93;;
4732;SDS011;2380;53.668;10.008;2023-03-01T06:24:40;10.93;;;6.80;;
4732;SDS011;2380;53.668;10.008;2023-03-01T06:27:10;20.27;;;8.05;;
4732;SDS011;2380;53.668;10.008;2023-03-01T06:29:39;16.43;;;6.90;;
4732;SDS011;2380;53.668;10.008;2023-03-01T06:32:09;14.65;;;6.70;;
4732;SDS011;2380;53.668;10.008;2023-03-01T06:34:41;12.55;;;6.70;;
4732;SDS011;2380;53.668;10.008;2023-03-01T06:37:11;15.63;;;6.80;;
4732;SDS011;2380;53.668;10.008;2023-03-01T06:39:40;22.15;;;7.35;;
4732;SDS011;2380;53.668;10.008;2023-03-01T06:42:13;12.35;;;6.57;;
4732;SDS011;2380;53.668;10.008;2023-03-01T06:44:43;20.50;;;7.07;;
4732;SDS011;2380;53.668;10.008;2023-03-01T06:47:13;18.90;;;7.05;;
4732;SDS011;2380;53.668;10.008;2023-03-01T06:49:45;18.40;;;6.90;;
4732;SDS011;2380;53.668;10.008;2023-03-01T06:52:15;20.58;;;7.50;;
4732;SDS011;2380;53.668;10.008;2023-03-01T06:54:44;19.93;;;7.70;;
4732;SDS011;2380;53.668;10.008;2023-03-01T06:57:14;13.80;;;6.97;;
4732;SDS011;2380;53.668;10.008;2023-03-01T06:59:43;13.65;;;7.50;;
4732;SDS011;2380;53.668;10.008;2023-03-01T07:02:13;17.70;;;7.70;;
4732;SDS011;2380;53.668;10.008;2023-03-01T07:04:45;15.33;;;7.37;;
4732;SDS011;2380;53.668;10.008;2023-03-01T07:07:15;13.95;;;7.57;;
4732;SDS011;2380;53.668;10.008;2023-03-01T07:09:45;18.13;;;7.77;;
4732;SDS011;2380;53.668;10.008;2023-03-01T07:12:15;14.03;;;7.10;;
4732;SDS011;2380;53.668;10.008;2023-03-01T07:14:45;13.27;;;7.57;;
4732;SDS011;2380;53.668;10.008;2023-03-01T07:17:14;12.68;;;7.35;;
4732;SDS011;2380;53.668;10.008;2023-03-01T07:19:47;36.55;;;15.13;;
4732;SDS011;2380;53.668;10.008;2023-03-01T07:22:17;15.07;;;7.55;;
4732;SDS011;2380;53.668;10.008;2023-03-01T07:24:46;17.47;;;7.53;;
4732;SDS011;2380;53.668;10.008;2023-03-01T07:27:16;37.70;;;17.65;;
4732;SDS011;2380;53.668;10.008;2023-03-01T07:29:45;57.50;;;28.75;;
4732;SDS011;2380;53.668;10.008;2023-03-01T07:32:15;70.47;;;29.55;;
4732;SDS011;2380;53.668;10.008;2023-03-01T07:34:47;70.27;;;32.63;;
4732;SDS011;2380;53.668;10.008;2023-03-01T07:37:17;22.20;;;9.60;;
4732;SDS011;2380;53.668;10.008;2023-03-01T07:39:46;68.67;;;30.30;;
4732;SDS011;2380;53.668;10.008;2023-03-01T07:42:16;15.97;;;8.67;;
4732;SDS011;2380;53.668;10.008;2023-03-01T07:44:45;19.23;;;9.25;;
4732;SDS011;2380;53.668;10.008;2023-03-01T07:47:15;42.53;;;16.90;;
4732;SDS011;2380;53.668;10.008;2023-03-01T07:49:47;20.30;;;10.27;;
4732;SDS011;2380;53.668;10.008;2023-03-01T07:52:16;18.03;;;9.57;;
4732;SDS011;2380;53.668;10.008;2023-03-01T07:54:46;22.83;;;10.50;;
4732;SDS011;2380;53.668;10.008;2023-03-01T07:57:15;21.45;;;10.63;;
4732;SDS011;2380;53.668;10.008;2023-03-01T07:59:45;21.30;;;11.15;;
4732;SDS011;2380;53.668;10.008;2023-03-01T08:02:14;42.03;;;17.43;;
4732;SDS011;2380;53.668;10.008;2023-03-01T08:04:47;54.47;;;18.37;;
4732;SDS011;2380;53.668;10.008;2023-03-01T08:07:16;21.37;;;10.23;;
4732;SDS011;2380;53.668;10.008;2023-03-01T08:09:47;16.70;;;9.43;;
4732;SDS011;2380;53.668;10.008;2023-03-01T08:12:16;20.95;;;9.68;;
4732;SDS011;2380;53.668;10.008;2023-03-01T08:14:45;29.57;;;13.57;;
4732;SDS011;2380;53.668;10.008;2023-03-01T08:17:16;39.50;;;17.90;;
4732;SDS011;2380;53.668;10.008;2023-03-01T08:19:48;25.53;;;11.37;;
4732;SDS011;2380;53.668;10.008;2023-03-01T08:22:17;31.45;;;14.80;;
4732;SDS011;2380;53.668;10.008;2023-03-01T08:24:47;26.60;;;11.17;;
4732;SDS011;2380;53.668;10.008;2023-03-01T08:27:16;24.20;;;11.50;;
4732;SDS011;2380;53.668;10.008;2023-03-01T08:29:46;28.53;;;13.37;;
4732;SDS011;2380;53.668;10.008;2023-03-01T08:32:15;21.50;;;11.87;;
4732;SDS011;2380;53.668;10.008;2023-03-01T08:34:48;31.83;;;16.40;;
4732;SDS011;2380;53.668;10.008;2023-03-01T08:37:18;22.23;;;11.77;;
4732;SDS011;2380;53.668;10.008;2023-03-01T08:39:47;23.17;;;12.27;;
4732;SDS011;2380;53.668;10.008;2023-03-01T08:42:16;22.17;;;11.73;;
4732;SDS011;2380;53.668;10.008;2023-03-01T08:44:46;29.03;;;14.30;;
4732;SDS011;2380;53.668;10.008;2023-03-01T08:47:16;22.43;;;11.70;;
4732;SDS011;2380;53.668;10.008;2023-03-01T08:49:48;23.33;;;11.50;;
4732;SDS011;2380;53.668;10.008;2023-03-01T08:52:19;57.93;;;22.83;;
4732;SDS011;2380;53.668;10.008;2023-03-01T08:54:48;29.60;;;12.87;;
4732;SDS011;2380;53.668;10.008;2023-03-01T08:57:18;42.30;;;17.63;;
4732;SDS011;2380;53.668;10.008;2023-03-01T08:59:47;30.17;;;13.97;;
4732;SDS011;2380;53.668;10.008;2023-03-01T09:02:17;36.10;;;16.73;;
4732;SDS011;2380;53.668;10.008;2023-03-01T09:04:50;32.33;;;15.53;;
4732;SDS011;2380;53.668;10.008;2023-03-01T09:07:19;29.73;;;14.60;;
4732;SDS011;2380;53.668;10.008;2023-03-01T09:09:54;30.20;;;15.03;;
4732;SDS011;2380;53.668;10.008;2023-03-01T09:12:23;34.97;;;16.20;;
4732;SDS011;2380;53.668;10.008;2023-03-01T09:14:53;30.67;;;15.40;;
4732;SDS011;2380;53.668;10.008;2023-03-01T09:17:23;32.33;;;15.87;;
4732;SDS011;2380;53.668;10.008;2023-03-01T09:19:55;31.60;;;14.30;;
4732;SDS011;2380;53.668;10.008;2023-03-01T09:22:26;27.27;;;13.13;;
4732;SDS011;2380;53.668;10.008;2023-03-01T09:24:55;32.77;;;14.53;;
4732;SDS011;2380;53.668;10.008;2023-03-01T09:27:25;29.00;;;13.70;;
4732;SDS011;2380;53.668;10.008;2023-03-01T09:29:55;29.20;;;14.40;;
4732;SDS011;2380;53.668;10.008;2023-03-01T09:32:25;32.00;;;16.30;;
4732;SDS011;2380;53.668;10.008;2023-03-01T09:34:57;31.37;;;14.97;;
4732;SDS011;2380;53.668;10.008;2023-03-01T09:37:31;33.00;;;14.70;;
4732;SDS011;2380;53.668;10.008;2023-03-01T09:40:01;92.80;;;31.00;;
4732;SDS011;2380;53.668;10.008;2023-03-01T09:42:32;24.30;;;11.43;;
4732;SDS011;2380;53.668;10.008;2023-03-01T09:45:04;25.67;;;11.83;;
4732;SDS011;2380;53.668;10.008;2023-03-01T09:47:35;24.90;;;11.50;;
4732;SDS011;2380;53.668;10.008;2023-03-01T09:50:11;24.43;;;11.73;;
4732;SDS011;2380;53.668;10.008;2023-03-01T09:52:44;41.17;;;16.40;;
4732;SDS011;2380;53.668;10.008;2023-03-01T09:55:17;30.63;;;12.50;;
4732;SDS011;2380;53.668;10.008;2023-03-01T09:57:52;26.10;;;11.40;;
4732;SDS011;2380;53.668;10.008;2023-03-01T10:00:30;24.60;;;11.03;;
4732;SDS011;2380;53.668;10.008;2023-03-01T10:03:03;23.73;;;11.30;;
4732;SDS011;2380;53.668;10.008;2023-03-01T10:05:47;20.67;;;11.83;;
4732;SDS011;2380;53.668;10.008;2023-03-01T10:11:21;32.83;;;14.30;;
4732;SDS011;2380;53.668;10.008;2023-03-01T10:13:54;26.40;;;11.70;;
4732;SDS011;2380;53.668;10.008;2023-03-01T10:16:26;38.03;;;16.90;;
4732;SDS011;2380;53.668;10.008;2023-03-01T10:19:10;31.00;;;13.60;;
4732;SDS011;2380;53.668;10.008;2023-03-01T10:21:44;18.10;;;10.57;;
4732;SDS011;2380;53.668;10.008;2023-03-01T10:24:15;77.10;;;26.90;;
4732;SDS011;2380;53.668;10.008;2023-03-01T10:26:48;20.77;;;11.07;;
4732;SDS011;2380;53.668;10.008;2023-03-01T10:29:24;23.67;;;11.10;;
4732;SDS011;2380;53.668;10.008;2023-03-01T10:31:56;17.90;;;10.37;;
4732;SDS011;2380;53.668;10.008;2023-03-01T10:34:27;22.63;;;10.40;;
4732;SDS011;2380;53.668;10.008;2023-03-01T10:37:01;24.10;;;10.10;;
4732;SDS011;2380;53.668;10.008;2023-03-01T10:39:53;20.27;;;10.30;;
4732;SDS011;2380;53.668;10.008;2023-03-01T10:42:28;20.43;;;9.70;;
4732;SDS011;2380;53.668;10.008;2023-03-01T10:44:58;22.50;;;11.27;;
4732;SDS011;2380;53.668;10.008;2023-03-01T10:47:44;17.17;;;9.00;;
4732;SDS011;2380;53.668;10.008;2023-03-01T10:50:23;19.70;;;9.30;;
4732;SDS011;2380;53.668;10.008;2023-03-01T10:52:58;53.87;;;15.03;;
4732;SDS011;2380;53.668;10.008;2023-03-01T10:55:31;20.27;;;9.03;;
4732;SDS011;2380;53.668;10.008;2023-03-01T10:58:06;18.17;;;9.03;;
4732;SDS011;2380;53.668;10.008;2023-03-01T11:00:45;22.03;;;8.70;;
4732;SDS011;2380;53.668;10.008;2023-03-01T11:03:17;19.50;;;8.67;;
4732;SDS011;2380;53.668;10.008;2023-03-01T11:05:55;15.60;;;8.60;;
4732;SDS011;2380;53.668;10.008;2023-03-01T11:08:33;16.93;;;8.53;;
4732;SDS011;2380;53.668;10.008;2023-03-01T11:11:06;17.03;;;9.00;;
4732;SDS011;2380;53.668;10.008;2023-03-01T11:13:47;18.90;;;8.10;;
4732;SDS011;2380;53.668;10.008;2023-03-01T11:16:31;34.27;;;15.23;;
4732;SDS011;2380;53.668;10.008;2023-03-01T11:19:16;23.30;;;11.70;;
4732;SDS011;2380;53.668;10.008;2023-03-01T11:21:53;23.87;;;10.27;;
4732;SDS011;2380;53.668;10.008;2023-03-01T11:24:29;37.30;;;14.20;;
4732;SDS011;2380;53.668;10.008;2023-03-01T11:27:02;19.73;;;9.50;;
4732;SDS011;2380;53.668;10.008;2023-03-01T11:29:44;18.53;;;9.03;;
4732;SDS011;2380;53.668;10.008;2023-03-01T11:32:17;17.60;;;8.50;;
4732;SDS011;2380;53.668;10.008;2023-03-01T11:34:50;16.97;;;8.97;;
4732;SDS011;2380;53.668;10.008;2023-03-01T11:37:28;16.50;;;7.87;;
4732;SDS011;2380;53.668;10.008;2023-03-01T11:40:15;16.43;;;7.60;;
4732;SDS011;2380;53.668;10.008;2023-03-01T11:42:55;18.00;;;8.10;;
4732;SDS011;2380;53.668;10.008;2023-03-01T11:45:34;18.10;;;8.43;;
4732;SDS011;2380;53.668;10.008;2023-03-01T11:51:15;19.60;;;9.70;;
4732;SDS011;2380;53.668;10.008;2023-03-01T11:53:58;12.57;;;7.60;;
4732;SDS011;2380;53.668;10.008;2023-03-01T11:56:38;15.23;;;8.20;;
4732;SDS011;2380;53.668;10.008;2023-03-01T11:59:15;14.40;;;7.70;;
4732;SDS011;2380;53.668;10.008;2023-03-01T12:01:56;45.43;;;17.33;;
4732;SDS011;2380;53.668;10.008;2023-03-01T12:07:37;25.97;;;10.27;;
4732;SDS011;2380;53.668;10.008;2023-03-01T12:10:19;14.97;;;7.33;;
4732;SDS011;2380;53.668;10.008;2023-03-01T12:13:02;13.80;;;6.40;;
4732;SDS011;2380;53.668;10.008;2023-03-01T12:15:39;32.97;;;10.80;;
4732;SDS011;2380;53.668;10.008;2023-03-01T12:18:18;15.07;;;7.07;;
4732;SDS011;2380;53.668;10.008;2023-03-01T12:20:58;11.40;;;6.27;;
4732;SDS011;2380;53.668;10.008;2023-03-01T12:26:38;13.43;;;6.10;;
4732;SDS011;2380;53.668;10.008;2023-03-01T12:29:20;12.63;;;6.43;;
4732;SDS011;2380;53.668;10.008;2023-03-01T12:32:06;19.60;;;7.00;;
4732;SDS011;2380;53.668;10.008;2023-03-01T12:34:49;9.80;;;5.60;;
4732;SDS011;2380;53.668;10.008;2023-03-01T12:37:29;13.33;;;5.90;;
4732;SDS011;2380;53.668;10.008;2023-03-01T12:43:17;11.80;;;5.10;;
4732;SDS011;2380;53.668;10.008;2023-03-01T12:45:57;14.90;;;6.93;;
4732;SDS011;2380;53.668;10.008;2023-03-01T12:48:39;11.90;;;5.43;;
4732;SDS011;2380;53.668;10.008;2023-03-01T12:51:15;13.10;;;5.43;;
4732;SDS011;2380;53.668;10.008;2023-03-01T12:53:46;10.80;;;5.40;;
4732;SDS011;2380;53.668;10.008;2023-03-01T12:56:18;10.37;;;5.47;;
4732;SDS011;2380;53.668;10.008;2023-03-01T12:58:51;9.00;;;5.23;;
4732;SDS011;2380;53.668;10.008;2023-03-01T13:01:35;9.87;;;5.40;;
4732;SDS011;2380;53.668;10.008;2023-03-01T13:04:19;11.20;;;5.10;;
4732;SDS011;2380;53.668;10.008;2023-03-01T13:06:55;10.57;;;5.73;;
4732;SDS011;2380;53.668;10.008;2023-03-01T13:09:30;9.57;;;5.07;;
4732;SDS011;2380;53.668;10.008;2023-03-01T13:12:04;11.00;;;5.20;;
4732;SDS011;2380;53.668;10.008;2023-03-01T13:20:47;9.47;;;5.37;;
4732;SDS011;2380;53.668;10.008;2023-03-01T13:23:24;8.07;;;5.10;;
4732;SDS011;2380;53.668;10.008;2023-03-01T13:28:53;9.40;;;4.20;;
4732;SDS011;2380;53.668;10.008;2023-03-01T13:37:25;9.37;;;4.90;;
4732;SDS011;2380;53.668;10.008;2023-03-01T13:39:57;6.70;;;4.13;;
4732;SDS011;2380;53.668;10.008;2023-03-01T13:42:38;7.77;;;4.60;;
4732;SDS011;2380;53.668;10.008;2023-03-01T13:45:27;9.43;;;4.80;;
4732;SDS011;2380;53.668;10.008;2023-03-01T13:48:09;7.23;;;4.30;;
4732;SDS011;2380;53.668;10.008;2023-03-01T13:50:43;10.03;;;5.23;;
4732;SDS011;2380;53.668;10.008;2023-03-01T13:53:19;7.87;;;4.77;;
4732;SDS011;2380;53.668;10.008;2023-03-01T13:55:50;8.40;;;3.77;;
4732;SDS011;2380;53.668;10.008;2023-03-01T13:58:22;9.10;;;5.30;;
4732;SDS011;2380;53.668;10.008;2023-03-01T14:00:57;13.80;;;5.10;;
4732;SDS011;2380;53.668;10.008;2023-03-01T14:03:28;7.67;;;4.50;;
4732;SDS011;2380;53.668;10.008;2023-03-01T14:06:03;8.40;;;4.90;;
4732;SDS011;2380;53.668;10.008;2023-03-01T14:08:46;11.07;;;5.23;;
4732;SDS011;2380;53.668;10.008;2023-03-01T14:11:34;34.43;;;13.70;;
4732;SDS011;2380;53.668;10.008;2023-03-01T14:14:36;8.17;;;4.80;;
4732;SDS011;2380;53.668;10.008;2023-03-01T14:17:16;9.57;;;5.43;;
4732;SDS011;2380;53.668;10.008;2023-03-01T14:20:11;10.63;;;5.53;;
4732;SDS011;2380;53.668;10.008;2023-03-01T14:22:43;13.13;;;5.53;;
4732;SDS011;2380;53.668;10.008;2023-03-01T14:25:21;10.60;;;4.97;;
4732;SDS011;2380;53.668;10.008;2023-03-01T14:27:58;8.70;;;5.00;;
4732;SDS011;2380;53.668;10.008;2023-03-01T14:30:32;10.83;;;6.07;;
4732;SDS011;2380;53.668;10.008;2023-03-01T14:33:05;12.13;;;6.90;;
4732;SDS011;2380;53.668;10.008;2023-03-01T14:35:51;12.27;;;6.50;;
4732;SDS011;2380;53.668;10.008;2023-03-01T14:38:22;9.20;;;5.23;;
4732;SDS011;2380;53.668;10.008;2023-03-01T14:40:56;9.23;;;6.03;;
4732;SDS011;2380;53.668;10.008;2023-03-01T14:43:29;10.50;;;5.87;;
4732;SDS011;2380;53.668;10.008;2023-03-01T14:45:59;15.23;;;6.60;;
4732;SDS011;2380;53.668;10.008;2023-03-01T14:48:29;11.53;;;5.97;;
4732;SDS011;2380;53.668;10.008;2023-03-01T14:50:59;11.03;;;6.40;;
4732;SDS011;2380;53.668;10.008;2023-03-01T14:53:29;10.83;;;6.80;;
4732;SDS011;2380;53.668;10.008;2023-03-01T14:56:17;11.40;;;5.80;;
4732;SDS011;2380;53.668;10.008;2023-03-01T14:58:50;10.23;;;5.00;;
4732;SDS011;2380;53.668;10.008;2023-03-01T15:01:20;8.73;;;4.33;;
4732;SDS011;2380;53.668;10.008;2023-03-01T15:03:50;7.47;;;4.73;;
4732;SDS011;2380;53.668;10.008;2023-03-01T15:06:21;8.00;;;4.60;;
4732;SDS011;2380;53.668;10.008;2023-03-01T15:08:52;8.33;;;4.30;;
4732;SDS011;2380;53.668;10.008;2023-03-01T15:11:27;7.70;;;4.67;;
4732;SDS011;2380;53.668;10.008;2023-03-01T15:13:58;6.80;;;4.30;;
4732;SDS011;2380;53.668;10.008;2023-03-01T15:16:29;7.20;;;4.40;;
4732;SDS011;2380;53.668;10.008;2023-03-01T15:19:00;8.00;;;4.33;;
4732;SDS011;2380;53.668;10.008;2023-03-01T15:21:32;10.00;;;4.57;;
4732;SDS011;2380;53.668;10.008;2023-03-01T15:24:04;7.10;;;4.17;;
4732;SDS011;2380;53.668;10.008;2023-03-01T15:26:41;6.70;;;4.03;;
4732;SDS011;2380;53.668;10.008;2023-03-01T15:29:15;5.87;;;3.60;;
4732;SDS011;2380;53.668;10.008;2023-03-01T15:31:53;10.10;;;4.83;;
4732;SDS011;2380;53.668;10.008;2023-03-01T15:34:24;10.23;;;5.67;;
4732;SDS011;2380;53.668;10.008;2023-03-01T15:36:55;9.93;;;5.37;;
4732;SDS011;2380;53.668;10.008;2023-03-01T15:39:36;10.13;;;5.57;;
4732;SDS011;2380;53.668;10.008;2023-03-01T15:42:12;10.20;;;5.70;;
4732;SDS011;2380;53.668;10.008;2023-03-01T15:44:43;11.90;;;5.43;;
4732;SDS011;2380;53.668;10.008;2023-03-01T15:47:26;9.67;;;4.97;;
4732;SDS011;2380;53.668;10.008;2023-03-01T15:49:58;12.13;;;6.20;;